sensor_id;sensor_type;location;lat;lon;timestamp;pressure;altitude;pressure_sealevel;temperature;humidity
48668;BME280;34453;52.198;5.004;2023-04-24T00:01:21;99965.53;;;9.57;100.00
48668;BME280;34453;52.198;5.004;2023-04-24T00:03:47;99978.88;;;9.53;100.00
48668;BME280;34453;52.198;5.004;2023-04-24T00:06:12;99996.22;;;9.54;100.00
48668;BME280;34453;52.198;5.004;2023-04-24T00:08:37;99995.03;;;9.49;100.00
48668;BME280;34453;52.198;5.004;2023-04-24T00:11:03;100002.84;;;9.49;100.00
48668;BME280;34453;52.198;5.004;2023-04-24T00:13:29;100011.53;;;9.49;100.00
48668;BME280;34453;52.198;5.004;2023-04-24T00:15:55;100020.47;;;9.47;100.00
48668;BME280;34453;52.198;5.004;2023-04-24T00:18:20;100016.38;;;9.44;100.00
48668;BME280;34453;52.198;5.004;2023-04-24T00:20:46;100023.53;;;9.42;100.00
48668;BME280;34453;52.198;5.004;2023-04-24T00:23:12;100020.94;;;9.42;100.00
48668;BME280;34453;52.198;5.004;2023-04-24T00:25:40;100023.84;;;9.39;100.00
48668;BME280;34453;52.198;5.004;2023-04-24T00:28:06;100032.66;;;9.38;100.00
48668;BME280;34453;52.198;5.004;2023-04-24T00:30:31;100030.66;;;9.32;100.00
48668;BME280;34453;52.198;5.004;2023-04-24T00:32:57;100036.56;;;9.34;100.00
48668;BME280;34453;52.198;5.004;2023-04-24T00:35:23;100030.19;;;9.37;100.00
48668;BME280;34453;52.198;5.004;2023-04-24T00:37:48;100049.75;;;9.32;100.00
48668;BME280;34453;52.198;5.004;2023-04-24T00:40:14;100045.44;;;9.23;100.00
48668;BME280;34453;52.198;5.004;2023-04-24T00:42:40;100052.97;;;9.26;100.00
48668;BME280;34453;52.198;5.004;2023-04-24T00:45:06;100051.78;;;9.21;100.00
48668;BME280;34453;52.198;5.004;2023-04-24T00:47:35;100058.94;;;9.19;100.00
48668;BME280;34453;52.198;5.004;2023-04-24T00:50:02;100058.41;;;9.15;100.00
48668;BME280;34453;52.198;5.004;2023-04-24T00:52:28;100057.59;;;9.15;100.00
48668;BME280;34453;52.198;5.004;2023-04-24T00:54:56;100054.84;;;9.16;100.00
48668;BME280;34453;52.198;5.004;2023-04-24T00:57:21;100061.56;;;9.19;100.00
48668;BME280;34453;52.198;5.004;2023-04-24T00:59:49;100064.31;;;9.17;100.00
48668;BME280;34453;52.198;5.004;2023-04-24T01:02:15;100060.22;;;9.15;100.00
48668;BME280;34453;52.198;5.004;2023-04-24T01:04:41;100062.00;;;9.14;100.00
48668;BME280;34453;52.198;5.004;2023-04-24T01:07:07;100064.16;;;9.19;100.00
48668;BME280;34453;52.198;5.004;2023-04-24T01:09:38;100056.78;;;9.14;100.00
48668;BME280;34453;52.198;5.004;2023-04-24T01:12:06;100058.28;;;9.17;100.00
48668;BME280;34453;52.198;5.004;2023-04-24T01:14:31;100069.06;;;9.22;100.00
48668;BME280;34453;52.198;5.004;2023-04-24T01:16:57;100054.69;;;9.18;100.00
48668;BME280;34453;52.198;5.004;2023-04-24T01:19:22;100060.13;;;9.24;100.00
48668;BME280;34453;52.198;5.004;2023-04-24T01:21:50;100061.59;;;9.27;100.00
48668;BME280;34453;52.198;5.004;2023-04-24T01:24:19;100061.91;;;9.24;100.00
48668;BME280;34453;52.198;5.004;2023-04-24T01:26:45;100067.72;;;9.18;100.00
48668;BME280;34453;52.198;5.004;2023-04-24T01:29:11;100070.19;;;9.19;100.00
48668;BME280;34453;52.198;5.004;2023-04-24T01:31:37;100061.69;;;9.17;100.00
48668;BME280;34453;52.198;5.004;2023-04-24T01:34:03;100073.94;;;9.17;100.00
48668;BME280;34453;52.198;5.004;2023-04-24T01:36:30;100063.03;;;9.21;100.00
48668;BME280;34453;52.198;5.004;2023-04-24T01:38:56;100066.09;;;9.17;100.00
48668;BME280;34453;52.198;5.004;2023-04-24T01:41:22;100068.63;;;9.08;100.00
48668;BME280;34453;52.198;5.004;2023-04-24T01:43:48;100071.78;;;9.12;100.00
48668;BME280;34453;52.198;5.004;2023-04-24T01:46:15;100070.97;;;9.11;100.00
48668;BME280;34453;52.198;5.004;2023-04-24T01:48:41;100071.91;;;9.10;100.00
48668;BME280;34453;52.198;5.004;2023-04-24T01:51:06;100067.00;;;9.07;100.00
48668;BME280;34453;52.198;5.004;2023-04-24T01:53:32;100065.06;;;9.09;100.00
48668;BME280;34453;52.198;5.004;2023-04-24T01:55:57;100076.59;;;9.07;100.00
48668;BME280;34453;52.198;5.004;2023-04-24T01:58:23;100080.34;;;9.04;100.00
48668;BME280;34453;52.198;5.004;2023-04-24T02:00:48;100077.72;;;9.04;100.00
48668;BME280;34453;52.198;5.004;2023-04-24T02:03:14;100073.78;;;9.00;100.00
48668;BME280;34453;52.198;5.004;2023-04-24T02:05:39;100081.59;;;9.00;100.00
48668;BME280;34453;52.198;5.004;2023-04-24T02:08:05;100067.75;;;9.00;100.00
48668;BME280;34453;52.198;5.004;2023-04-24T02:10:30;100075.88;;;8.97;100.00
48668;BME280;34453;52.198;5.004;2023-04-24T02:12:56;100072.28;;;8.98;100.00
48668;BME280;34453;52.198;5.004;2023-04-24T02:15:21;100079.75;;;8.92;100.00
48668;BME280;34453;52.198;5.004;2023-04-24T02:17:46;100077.97;;;8.93;100.00
48668;BME280;34453;52.198;5.004;2023-04-24T02:20:12;100078.63;;;8.95;100.00
48668;BME280;34453;52.198;5.004;2023-04-24T02:22:37;100081.25;;;8.95;100.00
48668;BME280;34453;52.198;5.004;2023-04-24T02:25:03;100080.97;;;8.98;100.00
48668;BME280;34453;52.198;5.004;2023-04-24T02:27:28;100075.56;;;9.00;100.00
48668;BME280;34453;52.198;5.004;2023-04-24T02:29:54;100082.59;;;8.99;100.00
48668;BME280;34453;52.198;5.004;2023-04-24T02:32:20;100083.03;;;8.95;100.00
48668;BME280;34453;52.198;5.004;2023-04-24T02:34:45;100087.81;;;8.99;100.00
48668;BME280;34453;52.198;5.004;2023-04-24T02:37:11;100085.34;;;8.98;100.00
48668;BME280;34453;52.198;5.004;2023-04-24T02:39:36;100083.25;;;9.01;100.00
48668;BME280;34453;52.198;5.004;2023-04-24T02:42:02;100090.78;;;9.04;100.00
48668;BME280;34453;52.198;5.004;2023-04-24T02:44:27;100083.41;;;9.00;100.00
48668;BME280;34453;52.198;5.004;2023-04-24T02:46:53;100084.88;;;9.02;100.00
48668;BME280;34453;52.198;5.004;2023-04-24T02:49:18;100084.53;;;8.97;100.00
48668;BME280;34453;52.198;5.004;2023-04-24T02:51:44;100093.69;;;9.01;100.00
48668;BME280;34453;52.198;5.004;2023-04-24T02:54:09;100090.78;;;9.04;100.00
48668;BME280;34453;52.198;5.004;2023-04-24T02:56:35;100088.16;;;9.04;100.00
48668;BME280;34453;52.198;5.004;2023-04-24T02:59:01;100087.50;;;9.02;100.00
48668;BME280;34453;52.198;5.004;2023-04-24T03:01:26;100084.06;;;9.02;100.00
48668;BME280;34453;52.198;5.004;2023-04-24T03:03:52;100086.53;;;9.03;100.00
48668;BME280;34453;52.198;5.004;2023-04-24T03:06:17;100085.06;;;9.01;100.00
48668;BME280;34453;52.198;5.004;2023-04-24T03:08:42;100085.56;;;9.04;100.00
48668;BME280;34453;52.198;5.004;2023-04-24T03:11:08;100086.69;;;9.02;100.00
48668;BME280;34453;52.198;5.004;2023-04-24T03:13:33;100090.94;;;9.03;100.00
48668;BME280;34453;52.198;5.004;2023-04-24T03:15:58;100082.44;;;9.01;100.00
48668;BME280;34453;52.198;5.004;2023-04-24T03:18:24;100087.94;;;8.98;100.00
48668;BME280;34453;52.198;5.004;2023-04-24T03:20:50;100086.47;;;8.95;100.00
48668;BME280;34453;52.198;5.004;2023-04-24T03:23:15;100090.56;;;8.98;100.00
48668;BME280;34453;52.198;5.004;2023-04-24T03:25:41;100082.06;;;8.96;100.00
48668;BME280;34453;52.198;5.004;2023-04-24T03:28:08;100090.41;;;8.99;100.00
48668;BME280;34453;52.198;5.004;2023-04-24T03:30:33;100087.28;;;8.96;100.00
48668;BME280;34453;52.198;5.004;2023-04-24T03:32:59;100082.38;;;8.92;100.00
48668;BME280;34453;52.198;5.004;2023-04-24T03:35:24;100080.06;;;8.89;100.00
48668;BME280;34453;52.198;5.004;2023-04-24T03:37:50;100084.44;;;8.89;100.00
48668;BME280;34453;52.198;5.004;2023-04-24T03:40:15;100081.81;;;8.89;100.00
48668;BME280;34453;52.198;5.004;2023-04-24T03:42:41;100075.66;;;8.90;100.00
48668;BME280;34453;52.198;5.004;2023-04-24T03:45:06;100079.91;;;8.91;100.00
48668;BME280;34453;52.198;5.004;2023-04-24T03:47:32;100080.34;;;8.86;100.00
48668;BME280;34453;52.198;5.004;2023-04-24T03:49:57;100080.34;;;8.86;100.00
48668;BME280;34453;52.198;5.004;2023-04-24T03:52:23;100080.34;;;8.86;100.00
48668;BME280;34453;52.198;5.004;2023-04-24T03:54:48;100082.00;;;8.87;100.00
48668;BME280;34453;52.198;5.004;2023-04-24T03:57:14;100075.66;;;8.90;100.00
48668;BME280;34453;52.198;5.004;2023-04-24T03:59:39;100081.69;;;8.90;100.00
48668;BME280;34453;52.198;5.004;2023-04-24T04:02:05;100080.34;;;8.86;100.00
48668;BME280;34453;52.198;5.004;2023-04-24T04:04:30;100078.94;;;8.92;100.00
48668;BME280;34453;52.198;5.004;2023-04-24T04:06:55;100086.59;;;8.93;100.00
48668;BME280;34453;52.198;5.004;2023-04-24T04:09:21;100090.19;;;8.92;100.00
48668;BME280;34453;52.198;5.004;2023-04-24T04:11:46;100097.47;;;8.89;100.00
48668;BME280;34453;52.198;5.004;2023-04-24T04:14:12;100094.66;;;8.82;100.00
48668;BME280;34453;52.198;5.004;2023-04-24T04:16:37;100101.53;;;8.83;100.00
48668;BME280;34453;52.198;5.004;2023-04-24T04:19:03;100097.19;;;8.74;100.00
48668;BME280;34453;52.198;5.004;2023-04-24T04:21:29;100103.53;;;8.71;100.00
48668;BME280;34453;52.198;5.004;2023-04-24T04:23:55;100113.34;;;8.78;100.00
48668;BME280;34453;52.198;5.004;2023-04-24T04:26:21;100120.22;;;8.79;100.00
48668;BME280;34453;52.198;5.004;2023-04-24T04:28:51;100117.88;;;8.76;100.00
48668;BME280;34453;52.198;5.004;2023-04-24T04:31:16;100114.91;;;8.70;100.00
48668;BME280;34453;52.198;5.004;2023-04-24T04:33:42;100123.41;;;8.73;100.00
48668;BME280;34453;52.198;5.004;2023-04-24T04:36:07;100120.44;;;8.67;100.00
48668;BME280;34453;52.198;5.004;2023-04-24T04:38:33;100119.44;;;8.68;100.00
48668;BME280;34453;52.198;5.004;2023-04-24T04:41:00;100121.69;;;8.63;100.00
48668;BME280;34453;52.198;5.004;2023-04-24T04:43:25;100136.94;;;8.58;100.00
48668;BME280;34453;52.198;5.004;2023-04-24T04:45:52;100144.47;;;8.61;100.00
48668;BME280;34453;52.198;5.004;2023-04-24T04:48:18;100148.03;;;8.60;100.00
48668;BME280;34453;52.198;5.004;2023-04-24T04:50:44;100146.09;;;8.62;100.00
48668;BME280;34453;52.198;5.004;2023-04-24T04:53:09;100152.53;;;8.68;100.00
48668;BME280;34453;52.198;5.004;2023-04-24T04:55:36;100156.94;;;8.67;100.00
48668;BME280;34453;52.198;5.004;2023-04-24T04:58:01;100165.03;;;8.64;100.00
48668;BME280;34453;52.198;5.004;2023-04-24T05:00:26;100155.97;;;8.68;100.00
48668;BME280;34453;52.198;5.004;2023-04-24T05:02:54;100168.06;;;8.60;100.00
48668;BME280;34453;52.198;5.004;2023-04-24T05:05:19;100169.31;;;8.56;100.00
48668;BME280;34453;52.198;5.004;2023-04-24T05:07:45;100176.63;;;8.52;100.00
48668;BME280;34453;52.198;5.004;2023-04-24T05:10:10;100179.91;;;8.54;100.00
48668;BME280;34453;52.198;5.004;2023-04-24T05:12:36;100180.47;;;8.48;100.00
48668;BME280;34453;52.198;5.004;2023-04-24T05:15:02;100187.31;;;8.49;100.00
48668;BME280;34453;52.198;5.004;2023-04-24T05:17:28;100179.66;;;8.38;100.00
48668;BME280;34453;52.198;5.004;2023-04-24T05:19:54;100188.59;;;8.45;100.00
48668;BME280;34453;52.198;5.004;2023-04-24T05:22:20;100187.63;;;8.46;100.00
48668;BME280;34453;52.198;5.004;2023-04-24T05:24:46;100200.97;;;8.43;100.00
48668;BME280;34453;52.198;5.004;2023-04-24T05:27:12;100207.38;;;8.48;100.00
48668;BME280;34453;52.198;5.004;2023-04-24T05:29:37;100208.47;;;8.46;100.00
48668;BME280;34453;52.198;5.004;2023-04-24T05:32:03;100218.91;;;8.46;100.00
48668;BME280;34453;52.198;5.004;2023-04-24T05:34:28;100227.13;;;8.51;100.00
48668;BME280;34453;52.198;5.004;2023-04-24T05:36:54;100227.41;;;8.48;100.00
48668;BME280;34453;52.198;5.004;2023-04-24T05:39:19;100226.00;;;8.54;100.00
48668;BME280;34453;52.198;5.004;2023-04-24T05:41:45;100240.56;;;8.56;100.00
48668;BME280;34453;52.198;5.004;2023-04-24T05:44:11;100245.22;;;8.53;100.00
48668;BME280;34453;52.198;5.004;2023-04-24T05:46:36;100245.78;;;8.56;100.00
48668;BME280;34453;52.198;5.004;2023-04-24T05:49:02;100265.09;;;8.63;100.00
48668;BME280;34453;52.198;5.004;2023-04-24T05:51:27;100270.69;;;8.68;100.00
48668;BME280;34453;52.198;5.004;2023-04-24T05:53:53;100267.53;;;8.75;100.00
48668;BME280;34453;52.198;5.004;2023-04-24T05:56:18;100288.38;;;8.75;100.00
48668;BME280;34453;52.198;5.004;2023-04-24T05:58:45;100287.56;;;8.74;100.00
48668;BME280;34453;52.198;5.004;2023-04-24T06:01:11;100296.34;;;8.73;100.00
48668;BME280;34453;52.198;5.004;2023-04-24T06:03:38;100306.94;;;8.71;100.00
48668;BME280;34453;52.198;5.004;2023-04-24T06:06:05;100304.47;;;8.70;100.00
48668;BME280;34453;52.198;5.004;2023-04-24T06:08:31;100319.72;;;8.65;100.00
48668;BME280;34453;52.198;5.004;2023-04-24T06:10:56;100328.38;;;8.65;100.00
48668;BME280;34453;52.198;5.004;2023-04-24T06:13:22;100328.06;;;8.68;100.00
48668;BME280;34453;52.198;5.004;2023-04-24T06:15:47;100336.44;;;8.62;100.00
48668;BME280;34453;52.198;5.004;2023-04-24T06:18:13;100344.81;;;8.66;100.00
48668;BME280;34453;52.198;5.004;2023-04-24T06:20:38;100341.25;;;8.67;100.00
48668;BME280;34453;52.198;5.004;2023-04-24T06:23:04;100350.59;;;8.60;100.00
48668;BME280;34453;52.198;5.004;2023-04-24T06:25:29;100361.19;;;8.48;100.00
48668;BME280;34453;52.198;5.004;2023-04-24T06:27:55;100364.88;;;8.56;100.00
48668;BME280;34453;52.198;5.004;2023-04-24T06:30:22;100365.44;;;8.59;100.00
48668;BME280;34453;52.198;5.004;2023-04-24T06:32:47;100372.03;;;8.44;100.00
48668;BME280;34453;52.198;5.004;2023-04-24T06:35:12;100371.84;;;8.36;100.00
48668;BME280;34453;52.198;5.004;2023-04-24T06:37:44;100390.69;;;8.49;100.00
48668;BME280;34453;52.198;5.004;2023-04-24T06:40:10;100395.91;;;8.49;100.00
48668;BME280;34453;52.198;5.004;2023-04-24T06:42:36;100394.56;;;8.45;100.00
48668;BME280;34453;52.198;5.004;2023-04-24T06:45:02;100396.88;;;8.48;100.00
48668;BME280;34453;52.198;5.004;2023-04-24T06:47:28;100407.69;;;8.53;100.00
48668;BME280;34453;52.198;5.004;2023-04-24T06:49:53;100415.94;;;8.48;100.00
48668;BME280;34453;52.198;5.004;2023-04-24T06:52:20;100420.88;;;8.42;100.00
48668;BME280;34453;52.198;5.004;2023-04-24T06:54:45;100426.22;;;8.50;100.00
48668;BME280;34453;52.198;5.004;2023-04-24T06:57:11;100431.03;;;8.45;100.00
48668;BME280;34453;52.198;5.004;2023-04-24T06:59:37;100434.03;;;8.40;100.00
48668;BME280;34453;52.198;5.004;2023-04-24T07:02:02;100442.28;;;8.45;100.00
48668;BME280;34453;52.198;5.004;2023-04-24T07:04:29;100437.91;;;8.46;100.00
48668;BME280;34453;52.198;5.004;2023-04-24T07:06:54;100443.94;;;8.46;100.00
48668;BME280;34453;52.198;5.004;2023-04-24T07:09:21;100445.19;;;8.52;100.00
48668;BME280;34453;52.198;5.004;2023-04-24T07:11:47;100452.72;;;8.55;100.00
48668;BME280;34453;52.198;5.004;2023-04-24T07:14:13;100469.88;;;8.48;100.00
48668;BME280;34453;52.198;5.004;2023-04-24T07:16:38;100471.66;;;8.57;100.00
48668;BME280;34453;52.198;5.004;2023-04-24T07:19:04;100465.63;;;8.57;100.00
48668;BME280;34453;52.198;5.004;2023-04-24T07:21:29;100469.72;;;8.59;100.00
48668;BME280;34453;52.198;5.004;2023-04-24T07:23:57;100479.88;;;8.53;100.00
48668;BME280;34453;52.198;5.004;2023-04-24T07:26:23;100479.34;;;8.59;100.00
48668;BME280;34453;52.198;5.004;2023-04-24T07:28:48;100482.91;;;8.58;100.00
48668;BME280;34453;52.198;5.004;2023-04-24T07:31:14;100487.00;;;8.60;100.00
48668;BME280;34453;52.198;5.004;2023-04-24T07:33:39;100496.63;;;8.60;100.00
48668;BME280;34453;52.198;5.004;2023-04-24T07:36:05;100490.31;;;8.62;100.00
48668;BME280;34453;52.198;5.004;2023-04-24T07:38:30;100505.25;;;8.60;100.00
48668;BME280;34453;52.198;5.004;2023-04-24T07:40:56;100512.69;;;8.55;100.00
48668;BME280;34453;52.198;5.004;2023-04-24T07:43:21;100527.91;;;8.50;100.00
48668;BME280;34453;52.198;5.004;2023-04-24T07:45:49;100530.69;;;8.58;100.00
48668;BME280;34453;52.198;5.004;2023-04-24T07:48:15;100540.25;;;8.58;100.00
48668;BME280;34453;52.198;5.004;2023-04-24T07:50:42;100537.13;;;8.54;100.00
48668;BME280;34453;52.198;5.004;2023-04-24T07:53:07;100537.25;;;8.53;100.00
48668;BME280;34453;52.198;5.004;2023-04-24T07:55:32;100539.59;;;8.65;100.00
48668;BME280;34453;52.198;5.004;2023-04-24T07:57:58;100540.56;;;8.64;100.00
48668;BME280;34453;52.198;5.004;2023-04-24T08:00:23;100546.59;;;8.55;100.00
48668;BME280;34453;52.198;5.004;2023-04-24T08:02:49;100551.53;;;8.58;100.00
48668;BME280;34453;52.198;5.004;2023-04-24T08:05:14;100565.81;;;8.64;100.00
48668;BME280;34453;52.198;5.004;2023-04-24T08:07:40;100560.31;;;8.67;100.00
48668;BME280;34453;52.198;5.004;2023-04-24T08:10:09;100567.47;;;8.65;100.00
48668;BME280;34453;52.198;5.004;2023-04-24T08:12:35;100582.03;;;8.67;100.00
48668;BME280;34453;52.198;5.004;2023-04-24T08:15:00;100583.66;;;8.59;100.00
48668;BME280;34453;52.198;5.004;2023-04-24T08:17:26;100583.66;;;8.59;100.00
48668;BME280;34453;52.198;5.004;2023-04-24T08:19:52;100586.25;;;8.68;100.00
48668;BME280;34453;52.198;5.004;2023-04-24T08:22:24;100579.66;;;8.55;100.00
48668;BME280;34453;52.198;5.004;2023-04-24T08:24:49;100601.09;;;8.58;100.00
48668;BME280;34453;52.198;5.004;2023-04-24T08:27:15;100607.94;;;8.59;100.00
48668;BME280;34453;52.198;5.004;2023-04-24T08:29:40;100604.22;;;8.52;100.00
48668;BME280;34453;52.198;5.004;2023-04-24T08:32:05;100608.22;;;8.56;100.00
48668;BME280;34453;52.198;5.004;2023-04-24T08:34:31;100617.41;;;8.60;100.00
48668;BME280;34453;52.198;5.004;2023-04-24T08:36:56;100620.97;;;8.59;100.00
48668;BME280;34453;52.198;5.004;2023-04-24T08:39:22;100620.44;;;8.65;100.00
48668;BME280;34453;52.198;5.004;2023-04-24T08:41:48;100623.47;;;8.61;100.00
48668;BME280;34453;52.198;5.004;2023-04-24T08:44:13;100630.88;;;8.65;100.00
48668;BME280;34453;52.198;5.004;2023-04-24T08:46:43;100637.03;;;8.64;100.00
48668;BME280;34453;52.198;5.004;2023-04-24T08:49:09;100629.78;;;8.78;100.00
48668;BME280;34453;52.198;5.004;2023-04-24T08:51:36;100642.84;;;8.78;100.00
48668;BME280;34453;52.198;5.004;2023-04-24T08:54:02;100640.78;;;8.71;100.00
48668;BME280;34453;52.198;5.004;2023-04-24T08:56:29;100641.91;;;8.79;100.00
48668;BME280;34453;52.198;5.004;2023-04-24T08:58:56;100645.59;;;8.86;100.00
48668;BME280;34453;52.198;5.004;2023-04-24T09:01:23;100649.59;;;9.00;100.00
48668;BME280;34453;52.198;5.004;2023-04-24T09:03:50;100645.22;;;9.00;100.00
48668;BME280;34453;52.198;5.004;2023-04-24T09:06:17;100649.22;;;9.14;100.00
48668;BME280;34453;52.198;5.004;2023-04-24T09:08:45;100647.28;;;9.06;100.00
48668;BME280;34453;52.198;5.004;2023-04-24T09:11:11;100660.19;;;9.18;100.00
48668;BME280;34453;52.198;5.004;2023-04-24T09:13:37;100657.03;;;8.95;100.00
48668;BME280;34453;52.198;5.004;2023-04-24T09:16:03;100665.50;;;8.77;100.00
48668;BME280;34453;52.198;5.004;2023-04-24T09:18:28;100665.22;;;8.70;100.00
48668;BME280;34453;52.198;5.004;2023-04-24T09:20:58;100664.00;;;8.75;100.00
48668;BME280;34453;52.198;5.004;2023-04-24T09:23:27;100670.31;;;8.82;100.00
48668;BME280;34453;52.198;5.004;2023-04-24T09:25:57;100667.19;;;8.88;100.00
48668;BME280;34453;52.198;5.004;2023-04-24T09:28:30;100665.66;;;8.95;100.00
48668;BME280;34453;52.198;5.004;2023-04-24T09:31:16;100667.22;;;9.07;100.00
48668;BME280;34453;52.198;5.004;2023-04-24T09:34:03;100671.91;;;9.23;100.00
48668;BME280;34453;52.198;5.004;2023-04-24T09:36:34;100676.00;;;9.26;100.00
48668;BME280;34453;52.198;5.004;2023-04-24T09:39:02;100676.44;;;9.41;100.00
48668;BME280;34453;52.198;5.004;2023-04-24T09:41:29;100684.53;;;9.28;100.00
48668;BME280;34453;52.198;5.004;2023-04-24T09:43:56;100689.47;;;9.11;100.00
48668;BME280;34453;52.198;5.004;2023-04-24T09:46:29;100694.66;;;8.92;100.00
48668;BME280;34453;52.198;5.004;2023-04-24T09:48:56;100707.25;;;8.87;100.00
48668;BME280;34453;52.198;5.004;2023-04-24T09:51:33;100721.28;;;8.86;100.00
48668;BME280;34453;52.198;5.004;2023-04-24T09:54:00;100715.03;;;8.67;100.00
48668;BME280;34453;52.198;5.004;2023-04-24T09:56:26;100719.63;;;8.85;100.00
48668;BME280;34453;52.198;5.004;2023-04-24T09:58:51;100720.47;;;8.95;100.00
48668;BME280;34453;52.198;5.004;2023-04-24T10:01:30;100721.44;;;9.04;100.00
48668;BME280;34453;52.198;5.004;2023-04-24T10:03:55;100722.16;;;9.16;100.00
48668;BME280;34453;52.198;5.004;2023-04-24T10:06:22;100724.81;;;9.25;100.00
48668;BME280;34453;52.198;5.004;2023-04-24T10:08:48;100723.69;;;9.28;100.00
48668;BME280;34453;52.198;5.004;2023-04-24T10:11:13;100721.78;;;9.40;100.00
48668;BME280;34453;52.198;5.004;2023-04-24T10:13:39;100725.63;;;9.55;100.00
48668;BME280;34453;52.198;5.004;2023-04-24T10:16:06;100724.28;;;9.61;100.00
48668;BME280;34453;52.198;5.004;2023-04-24T10:18:32;100729.63;;;9.49;100.00
48668;BME280;34453;52.198;5.004;2023-04-24T10:20:59;100726.59;;;9.44;100.00
48668;BME280;34453;52.198;5.004;2023-04-24T10:23:25;100731.56;;;9.47;100.00
48668;BME280;34453;52.198;5.004;2023-04-24T10:25:52;100723.84;;;9.36;100.00
48668;BME280;34453;52.198;5.004;2023-04-24T10:28:18;100738.13;;;9.32;100.00
48668;BME280;34453;52.198;5.004;2023-04-24T10:30:45;100726.63;;;9.54;100.00
48668;BME280;34453;52.198;5.004;2023-04-24T10:33:11;100733.47;;;9.65;100.00
48668;BME280;34453;52.198;5.004;2023-04-24T10:35:42;100740.50;;;9.54;100.00
48668;BME280;34453;52.198;5.004;2023-04-24T10:38:12;100743.50;;;9.40;100.00
48668;BME280;34453;52.198;5.004;2023-04-24T10:40:39;100745.56;;;9.46;100.00
48668;BME280;34453;52.198;5.004;2023-04-24T10:43:06;100760.94;;;9.30;100.00
48668;BME280;34453;52.198;5.004;2023-04-24T10:45:34;100780.97;;;9.20;100.00
48668;BME280;34453;52.198;5.004;2023-04-24T10:48:04;100771.16;;;9.02;100.00
48668;BME280;34453;52.198;5.004;2023-04-24T10:50:57;100789.69;;;8.89;100.00
48668;BME280;34453;52.198;5.004;2023-04-24T10:53:24;100789.03;;;9.07;100.00
48668;BME280;34453;52.198;5.004;2023-04-24T10:56:07;100791.69;;;9.26;100.00
48668;BME280;34453;52.198;5.004;2023-04-24T10:58:51;100783.06;;;9.36;100.00
48668;BME280;34453;52.198;5.004;2023-04-24T11:01:26;100774.16;;;9.87;100.00
48668;BME280;34453;52.198;5.004;2023-04-24T11:04:02;100783.94;;;10.04;100.00
48668;BME280;34453;52.198;5.004;2023-04-24T11:06:31;100793.56;;;10.04;100.00
48668;BME280;34453;52.198;5.004;2023-04-24T11:09:07;100782.97;;;9.95;100.00
48668;BME280;34453;52.198;5.004;2023-04-24T11:11:35;100790.53;;;9.79;100.00
48668;BME280;34453;52.198;5.004;2023-04-24T11:14:03;100801.41;;;9.74;100.00
48668;BME280;34453;52.198;5.004;2023-04-24T11:16:42;100794.53;;;9.93;100.00
48668;BME280;34453;52.198;5.004;2023-04-24T11:27:19;100796.66;;;10.56;100.00
48668;BME280;34453;52.198;5.004;2023-04-24T11:32:33;100796.81;;;10.45;100.00
48668;BME280;34453;52.198;5.004;2023-04-24T11:35:14;100800.53;;;10.62;100.00
48668;BME280;34453;52.198;5.004;2023-04-24T11:37:41;100800.59;;;10.32;100.00
48668;BME280;34453;52.198;5.004;2023-04-24T11:40:10;100800.88;;;10.29;100.00
48668;BME280;34453;52.198;5.004;2023-04-24T11:42:40;100812.16;;;10.30;100.00
48668;BME280;34453;52.198;5.004;2023-04-24T11:45:14;100812.69;;;10.33;100.00
48668;BME280;34453;52.198;5.004;2023-04-24T11:47:40;100809.66;;;10.48;100.00
48668;BME280;34453;52.198;5.004;2023-04-24T11:50:08;100810.75;;;10.26;100.00
48668;BME280;34453;52.198;5.004;2023-04-24T11:52:39;100814.06;;;10.08;100.00
48668;BME280;34453;52.198;5.004;2023-04-24T11:57:53;100826.69;;;10.62;100.00
48668;BME280;34453;52.198;5.004;2023-04-24T12:00:23;100831.44;;;11.13;100.00
48668;BME280;34453;52.198;5.004;2023-04-24T12:02:49;100828.00;;;11.13;100.00
48668;BME280;34453;52.198;5.004;2023-04-24T12:05:26;100834.31;;;10.92;100.00
48668;BME280;34453;52.198;5.004;2023-04-24T12:07:52;100844.03;;;10.53;100.00
48668;BME280;34453;52.198;5.004;2023-04-24T12:10:22;100850.81;;;10.16;100.00
48668;BME280;34453;52.198;5.004;2023-04-24T12:12:49;100839.09;;;9.91;100.00
48668;BME280;34453;52.198;5.004;2023-04-24T12:15:17;100854.75;;;9.91;100.00
48668;BME280;34453;52.198;5.004;2023-04-24T12:17:43;100844.88;;;10.14;100.00
48668;BME280;34453;52.198;5.004;2023-04-24T12:20:09;100860.03;;;10.01;100.00
48668;BME280;34453;52.198;5.004;2023-04-24T12:22:49;100873.47;;;9.87;100.00
48668;BME280;34453;52.198;5.004;2023-04-24T12:25:18;100869.31;;;9.65;100.00
48668;BME280;34453;52.198;5.004;2023-04-24T12:27:45;100889.19;;;9.46;100.00
48668;BME280;34453;52.198;5.004;2023-04-24T12:30:15;100891.09;;;9.44;100.00
48668;BME280;34453;52.198;5.004;2023-04-24T12:32:46;100889.03;;;9.38;100.00
48668;BME280;34453;52.198;5.004;2023-04-24T12:35:18;100907.47;;;9.46;100.00
48668;BME280;34453;52.198;5.004;2023-04-24T12:37:45;100901.41;;;9.36;100.00
48668;BME280;34453;52.198;5.004;2023-04-24T12:40:11;100905.78;;;9.36;100.00
48668;BME280;34453;52.198;5.004;2023-04-24T12:42:47;100901.00;;;9.41;100.00
48668;BME280;34453;52.198;5.004;2023-04-24T12:45:14;100922.22;;;9.57;100.00
48668;BME280;34453;52.198;5.004;2023-04-24T12:47:41;100913.28;;;9.60;100.00
48668;BME280;34453;52.198;5.004;2023-04-24T12:50:08;100909.47;;;9.64;100.00
48668;BME280;34453;52.198;5.004;2023-04-24T12:52:35;100918.97;;;9.74;100.00
48668;BME280;34453;52.198;5.004;2023-04-24T12:55:01;100914.03;;;9.81;100.00
48668;BME280;34453;52.198;5.004;2023-04-24T12:57:28;100910.91;;;9.97;100.00
48668;BME280;34453;52.198;5.004;2023-04-24T12:59:54;100923.44;;;10.13;100.00
48668;BME280;34453;52.198;5.004;2023-04-24T13:02:21;100913.72;;;10.64;100.00